Time;durP1;ratioP1;P1;durP2;ratioP2;P2;SDS_P1;SDS_P2;PMS_P1;PMS_P2;Temp;Humidity;BMP_temperature;BMP_pressure;BME280_temperature;BME280_humidity;BME280_pressure;Samples;Min_cycle;Max_cycle;Signal;HPM_P1;HPM_P2
2022/04/10 00:02:07;;;;;;;5.10;4.60;;;;;;;;;;5098333;28;20785;-80
2022/04/10 00:04:34;;;;;;;5.20;3.70;;;;;;;;;;5095799;28;20550;-78
2022/04/10 00:07:03;;;;;;;4.40;4.03;;;;;;;;;;5096462;28;20475;-78
2022/04/10 00:09:30;;;;;;;4.43;4.07;;;;;;;;;;5103389;28;20451;-81
2022/04/10 00:11:58;;;;;;;4.97;4.30;;;;;;;;;;5102122;28;20439;-79
2022/04/10 00:14:25;;;;;;;4.37;3.97;;;;;;;;;;5099263;28;20554;-81
2022/04/10 00:16:52;;;;;;;4.43;3.93;;;;;;;;;;5101401;28;20444;-79
2022/04/10 00:19:19;;;;;;;3.97;3.67;;;;;;;;;;5095680;28;20462;-78
2022/04/10 00:21:46;;;;;;;5.70;4.97;;;;;;;;;;5091945;28;20448;-78
2022/04/10 00:24:15;;;;;;;4.87;4.13;;;;;;;;;;5096728;28;20579;-79
2022/04/10 00:26:42;;;;;;;4.80;4.00;;;;;;;;;;5091696;28;20436;-78
2022/04/10 00:29:09;;;;;;;4.20;3.80;;;;;;;;;;5091980;28;20955;-78
2022/04/10 00:31:36;;;;;;;3.97;3.67;;;;;;;;;;5091091;28;20435;-78
2022/04/10 00:34:03;;;;;;;6.10;4.33;;;;;;;;;;5089281;28;20477;-80
2022/04/10 00:36:30;;;;;;;6.33;4.30;;;;;;;;;;5088947;28;20481;-79
2022/04/10 00:38:58;;;;;;;6.00;4.60;;;;;;;;;;5091787;28;20447;-80
2022/04/10 00:41:26;;;;;;;4.63;4.00;;;;;;;;;;5094914;28;20926;-79
2022/04/10 00:44:03;;;;;;;5.10;4.20;;;;;;;;;;5097407;28;20848;-80
2022/04/10 00:46:30;;;;;;;4.80;4.00;;;;;;;;;;5096601;28;20954;-79
2022/04/10 00:48:58;;;;;;;8.03;4.27;;;;;;;;;;5099212;28;20482;-78
2022/04/10 00:54:06;;;;;;;5.47;4.13;;;;;;;;;;5096509;28;20861;-79
2022/04/10 00:56:35;;;;;;;4.70;4.07;;;;;;;;;;5098609;28;20858;-78
2022/04/10 00:59:03;;;;;;;5.77;4.60;;;;;;;;;;5096883;28;20435;-79
2022/04/10 01:01:30;;;;;;;4.60;4.30;;;;;;;;;;5096929;28;20480;-80
2022/04/10 01:03:57;;;;;;;4.80;4.40;;;;;;;;;;5096842;28;20442;-80
2022/04/10 01:06:24;;;;;;;4.77;4.37;;;;;;;;;;5091741;28;20452;-78
2022/04/10 01:08:51;;;;;;;8.63;5.40;;;;;;;;;;5093828;28;20471;-80
2022/04/10 01:11:19;;;;;;;4.40;4.03;;;;;;;;;;5097594;28;20439;-78
2022/04/10 01:13:47;;;;;;;6.23;4.97;;;;;;;;;;5099893;28;20448;-79
2022/04/10 01:16:14;;;;;;;6.53;4.50;;;;;;;;;;5097979;28;20443;-78
2022/04/10 01:18:42;;;;;;;4.23;3.83;;;;;;;;;;5098139;28;20428;-79
2022/04/10 01:21:12;;;;;;;5.67;4.80;;;;;;;;;;5099537;28;20491;-78
2022/04/10 01:23:40;;;;;;;4.70;4.40;;;;;;;;;;5098162;28;20451;-80
2022/04/10 01:26:08;;;;;;;4.80;4.17;;;;;;;;;;5099337;28;20497;-79
2022/04/10 01:28:35;;;;;;;6.00;4.20;;;;;;;;;;5098245;28;20479;-77
2022/04/10 01:31:02;;;;;;;4.60;4.10;;;;;;;;;;5099383;28;20914;-80
2022/04/10 01:33:29;;;;;;;4.40;4.00;;;;;;;;;;5098696;28;20447;-79
2022/04/10 01:35:56;;;;;;;7.20;4.10;;;;;;;;;;5098445;28;20475;-79
2022/04/10 01:38:23;;;;;;;4.50;4.10;;;;;;;;;;5097648;28;20436;-78
2022/04/10 01:40:52;;;;;;;4.73;4.00;;;;;;;;;;5096280;28;20451;-80
2022/04/10 01:43:19;;;;;;;4.43;4.13;;;;;;;;;;5098155;28;20424;-79
2022/04/10 01:45:46;;;;;;;4.60;4.20;;;;;;;;;;5097360;28;20463;-79
2022/04/10 01:48:13;;;;;;;5.03;4.63;;;;;;;;;;5097239;28;20882;-80
2022/04/10 01:50:40;;;;;;;5.60;4.33;;;;;;;;;;5098216;28;20500;-79
2022/04/10 01:53:07;;;;;;;4.43;4.03;;;;;;;;;;5095984;28;20846;-79
2022/04/10 01:55:34;;;;;;;4.10;3.83;;;;;;;;;;5097151;28;20459;-78
2022/04/10 01:58:02;;;;;;;6.57;4.43;;;;;;;;;;5098920;28;20831;-80
2022/04/10 02:00:29;;;;;;;5.17;4.73;;;;;;;;;;5098387;28;20465;-78
2022/04/10 02:02:56;;;;;;;4.47;4.10;;;;;;;;;;5095416;28;20455;-79
2022/04/10 02:05:23;;;;;;;7.10;4.80;;;;;;;;;;5096485;28;20521;-80
2022/04/10 02:07:50;;;;;;;4.73;4.33;;;;;;;;;;5098259;28;20520;-79
2022/04/10 02:10:17;;;;;;;5.33;4.83;;;;;;;;;;5099279;28;20447;-79
2022/04/10 02:12:44;;;;;;;7.43;4.90;;;;;;;;;;5097545;28;20428;-78
2022/04/10 02:15:13;;;;;;;4.93;4.53;;;;;;;;;;5095963;28;20452;-79
2022/04/10 02:17:40;;;;;;;5.23;4.83;;;;;;;;;;5097169;28;20443;-79
2022/04/10 02:20:07;;;;;;;7.43;5.20;;;;;;;;;;5099157;28;20475;-79
2022/04/10 02:22:34;;;;;;;7.30;5.20;;;;;;;;;;5097566;28;20470;-79
2022/04/10 02:25:02;;;;;;;6.70;5.33;;;;;;;;;;5097775;28;20544;-80
2022/04/10 02:27:29;;;;;;;4.80;4.50;;;;;;;;;;5098194;28;20490;-79
2022/04/10 02:29:56;;;;;;;4.77;4.37;;;;;;;;;;5096533;28;20439;-79
2022/04/10 02:32:25;;;;;;;5.90;5.00;;;;;;;;;;5098065;28;20452;-79
2022/04/10 02:34:52;;;;;;;5.70;5.20;;;;;;;;;;5097446;28;20854;-79
2022/04/10 02:37:19;;;;;;;5.30;4.80;;;;;;;;;;5099819;28;20447;-79
2022/04/10 02:39:46;;;;;;;6.40;5.07;;;;;;;;;;5097572;28;20447;-78
2022/04/10 02:42:13;;;;;;;5.20;4.70;;;;;;;;;;5099289;28;20447;-78
2022/04/10 02:44:40;;;;;;;5.63;5.20;;;;;;;;;;5096579;28;20466;-79
2022/04/10 02:47:07;;;;;;;4.90;4.50;;;;;;;;;;5096774;28;20457;-79
2022/04/10 02:49:36;;;;;;;5.17;4.77;;;;;;;;;;5096354;28;20475;-79
2022/04/10 02:52:03;;;;;;;5.70;5.13;;;;;;;;;;5096566;28;20519;-79
2022/04/10 02:54:30;;;;;;;5.50;4.97;;;;;;;;;;5097641;28;20538;-79
2022/04/10 02:56:57;;;;;;;6.07;5.57;;;;;;;;;;5096555;28;20456;-80
2022/04/10 02:59:24;;;;;;;5.60;5.10;;;;;;;;;;5096191;28;20449;-77
2022/04/10 03:01:51;;;;;;;5.70;5.20;;;;;;;;;;5098162;28;20423;-77
2022/04/10 03:04:18;;;;;;;5.67;5.27;;;;;;;;;;5103097;28;20463;-78
2022/04/10 03:06:47;;;;;;;5.50;5.00;;;;;;;;;;5098884;28;20443;-80
2022/04/10 03:09:14;;;;;;;6.40;5.87;;;;;;;;;;5100425;28;20488;-79
2022/04/10 03:11:41;;;;;;;6.53;5.90;;;;;;;;;;5106948;28;20448;-78
2022/04/10 03:14:08;;;;;;;6.03;5.60;;;;;;;;;;5104867;28;20474;-79
2022/04/10 03:16:35;;;;;;;6.00;5.50;;;;;;;;;;5098363;28;20447;-78
2022/04/10 03:19:03;;;;;;;5.57;5.17;;;;;;;;;;5098440;28;20508;-78
2022/04/10 03:21:30;;;;;;;9.20;6.50;;;;;;;;;;5098843;28;20952;-80
2022/04/10 03:23:59;;;;;;;7.70;6.23;;;;;;;;;;5097054;28;20454;-79
2022/04/10 03:26:26;;;;;;;6.30;5.70;;;;;;;;;;5097611;28;20435;-79
2022/04/10 03:28:53;;;;;;;6.27;5.80;;;;;;;;;;5097982;28;20550;-80
2022/04/10 03:31:20;;;;;;;6.50;5.67;;;;;;;;;;5098325;28;20458;-79
2022/04/10 03:33:47;;;;;;;6.47;5.97;;;;;;;;;;5098267;28;20448;-80
2022/04/10 03:36:14;;;;;;;6.47;5.87;;;;;;;;;;5097985;28;20861;-78
2022/04/10 03:38:41;;;;;;;6.43;5.87;;;;;;;;;;5097765;28;20438;-80
2022/04/10 03:41:09;;;;;;;6.80;6.10;;;;;;;;;;5097829;28;20448;-78
2022/04/10 03:43:36;;;;;;;7.57;7.00;;;;;;;;;;5099166;28;20492;-80
2022/04/10 03:46:04;;;;;;;7.07;6.37;;;;;;;;;;5101045;28;20477;-79
2022/04/10 03:48:31;;;;;;;5.83;5.33;;;;;;;;;;5101113;28;20476;-78
2022/04/10 03:50:58;;;;;;;6.47;5.97;;;;;;;;;;5101324;28;20457;-79
2022/04/10 03:53:25;;;;;;;7.03;6.40;;;;;;;;;;5098656;28;20450;-79
2022/04/10 03:55:52;;;;;;;6.40;5.90;;;;;;;;;;5100487;28;20976;-79
2022/04/10 03:58:21;;;;;;;6.50;5.90;;;;;;;;;;5098405;28;20438;-78
2022/04/10 04:00:48;;;;;;;7.00;6.50;;;;;;;;;;5098293;28;20438;-80
2022/04/10 04:03:15;;;;;;;6.90;6.40;;;;;;;;;;5091354;28;20462;-80
2022/04/10 04:05:42;;;;;;;9.30;6.10;;;;;;;;;;5099145;28;20462;-79
2022/04/10 04:08:09;;;;;;;6.87;6.20;;;;;;;;;;5099474;28;21027;-79
2022/04/10 04:10:36;;;;;;;7.70;7.00;;;;;;;;;;5098939;28;20549;-78
2022/04/10 04:13:03;;;;;;;8.33;7.23;;;;;;;;;;5097138;28;20442;-79
2022/04/10 04:15:32;;;;;;;7.23;6.60;;;;;;;;;;5098563;28;21028;-79
2022/04/10 04:17:59;;;;;;;6.80;6.20;;;;;;;;;;5099211;28;20481;-80
2022/04/10 04:20:26;;;;;;;8.07;7.27;;;;;;;;;;5098487;28;20454;-79
2022/04/10 04:22:54;;;;;;;7.73;6.87;;;;;;;;;;5099004;28;20455;-79
2022/04/10 04:25:21;;;;;;;7.57;6.90;;;;;;;;;;5098479;28;20465;-79
2022/04/10 04:27:48;;;;;;;7.30;6.70;;;;;;;;;;5098537;28;20446;-79
2022/04/10 04:30:15;;;;;;;7.87;7.27;;;;;;;;;;5098437;28;21000;-79
2022/04/10 04:32:43;;;;;;;7.00;6.43;;;;;;;;;;5099460;28;20446;-79
2022/04/10 04:35:12;;;;;;;7.30;6.77;;;;;;;;;;5097342;28;20461;-78
2022/04/10 04:37:40;;;;;;;8.17;7.37;;;;;;;;;;5099251;28;20439;-78
2022/04/10 04:40:07;;;;;;;7.60;6.40;;;;;;;;;;5097020;28;20805;-78
2022/04/10 04:42:34;;;;;;;7.77;7.07;;;;;;;;;;5098585;28;20431;-79
2022/04/10 04:45:01;;;;;;;7.70;7.07;;;;;;;;;;5099539;28;20459;-79
2022/04/10 04:47:28;;;;;;;8.10;6.67;;;;;;;;;;5110942;28;20461;-78
2022/04/10 04:49:57;;;;;;;7.60;6.90;;;;;;;;;;5117128;28;20459;-79
2022/04/10 04:52:24;;;;;;;7.63;7.03;;;;;;;;;;5116100;28;20825;-78
2022/04/10 04:54:51;;;;;;;8.53;7.50;;;;;;;;;;5115166;28;20496;-78
2022/04/10 04:57:18;;;;;;;8.30;7.67;;;;;;;;;;5117128;28;20646;-79
2022/04/10 04:59:45;;;;;;;8.43;6.57;;;;;;;;;;5117821;28;20439;-78
2022/04/10 05:02:12;;;;;;;8.37;7.57;;;;;;;;;;5117687;28;20458;-78
2022/04/10 05:04:39;;;;;;;7.80;7.10;;;;;;;;;;5098867;28;20504;-79
2022/04/10 05:07:08;;;;;;;8.23;7.43;;;;;;;;;;5100249;28;20438;-77
2022/04/10 05:09:35;;;;;;;6.87;6.27;;;;;;;;;;5099488;28;20476;-79
2022/04/10 05:12:02;;;;;;;8.00;7.03;;;;;;;;;;5099294;28;20797;-78
2022/04/10 05:14:29;;;;;;;8.50;7.30;;;;;;;;;;5097948;28;20485;-78
2022/04/10 05:16:56;;;;;;;7.70;7.00;;;;;;;;;;5099473;28;20439;-78
2022/04/10 05:19:23;;;;;;;6.83;6.23;;;;;;;;;;5099445;28;20443;-79
2022/04/10 05:21:50;;;;;;;7.63;6.90;;;;;;;;;;5100181;28;20448;-79
2022/04/10 05:24:19;;;;;;;7.50;6.77;;;;;;;;;;5099853;28;20464;-78
2022/04/10 05:26:46;;;;;;;7.43;6.83;;;;;;;;;;5098857;28;20440;-78
2022/04/10 05:29:13;;;;;;;7.63;6.80;;;;;;;;;;5098791;28;20475;-78
2022/04/10 05:31:40;;;;;;;7.57;6.57;;;;;;;;;;5100501;28;20451;-78
2022/04/10 05:34:07;;;;;;;6.63;6.10;;;;;;;;;;5096698;28;20515;-79
2022/04/10 05:36:34;;;;;;;7.80;7.10;;;;;;;;;;5091334;28;20935;-79
2022/04/10 05:39:01;;;;;;;7.20;6.70;;;;;;;;;;5099177;28;20501;-79
2022/04/10 05:41:30;;;;;;;8.30;5.90;;;;;;;;;;5102514;28;20446;-79
2022/04/10 05:43:57;;;;;;;6.93;6.30;;;;;;;;;;5105025;28;20755;-79
2022/04/10 05:46:25;;;;;;;8.47;7.37;;;;;;;;;;5105381;28;20447;-78
2022/04/10 05:49:03;;;;;;;7.43;6.50;;;;;;;;;;5089707;28;20468;-80
2022/04/10 05:51:30;;;;;;;8.00;7.20;;;;;;;;;;5079676;28;20509;-79
2022/04/10 05:53:57;;;;;;;7.97;7.30;;;;;;;;;;5076459;28;20491;-79
2022/04/10 05:56:24;;;;;;;6.97;6.23;;;;;;;;;;5074906;28;20848;-79
2022/04/10 05:58:52;;;;;;;6.70;6.00;;;;;;;;;;5075525;28;20441;-78
2022/04/10 06:01:26;;;;;;;6.90;5.90;;;;;;;;;;5076441;28;20862;-81
2022/04/10 06:03:53;;;;;;;7.00;6.20;;;;;;;;;;5076668;28;20455;-79
2022/04/10 06:06:20;;;;;;;6.67;6.10;;;;;;;;;;5087783;28;20440;-80
2022/04/10 06:08:47;;;;;;;7.80;6.13;;;;;;;;;;5098681;28;20475;-80
2022/04/10 06:11:14;;;;;;;7.60;6.90;;;;;;;;;;5097402;28;20493;-78
2022/04/10 06:13:41;;;;;;;6.80;6.20;;;;;;;;;;5096771;28;20448;-78
2022/04/10 06:16:17;;;;;;;6.80;6.20;;;;;;;;;;5095564;28;20467;-79
2022/04/10 06:18:44;;;;;;;5.87;5.37;;;;;;;;;;5095300;28;20531;-79
2022/04/10 06:21:11;;;;;;;6.20;5.70;;;;;;;;;;5095151;28;20455;-79
2022/04/10 06:23:38;;;;;;;6.23;5.83;;;;;;;;;;5095725;28;20562;-79
2022/04/10 06:26:05;;;;;;;6.40;5.80;;;;;;;;;;5101233;28;20460;-79
2022/04/10 06:28:32;;;;;;;7.40;5.90;;;;;;;;;;5099500;28;20790;-79
2022/04/10 06:30:59;;;;;;;6.73;6.07;;;;;;;;;;5100307;28;20432;-79
2022/04/10 06:33:27;;;;;;;7.17;6.27;;;;;;;;;;5101476;28;20488;-78
2022/04/10 06:35:54;;;;;;;6.63;5.23;;;;;;;;;;5100818;28;20806;-80
2022/04/10 06:38:21;;;;;;;7.30;5.53;;;;;;;;;;5098608;28;20938;-80
2022/04/10 06:40:51;;;;;;;5.17;4.70;;;;;;;;;;5097677;28;20451;-79
2022/04/10 06:43:19;;;;;;;6.97;6.23;;;;;;;;;;5098879;28;20451;-78
2022/04/10 06:45:46;;;;;;;6.57;6.00;;;;;;;;;;5096155;28;20995;-79
2022/04/10 06:48:13;;;;;;;5.77;5.13;;;;;;;;;;5099181;28;20498;-79
2022/04/10 06:50:41;;;;;;;6.80;5.63;;;;;;;;;;5095948;28;20479;-79
2022/04/10 06:53:09;;;;;;;6.10;5.50;;;;;;;;;;5096783;28;20439;-79
2022/04/10 06:55:37;;;;;;;5.97;5.20;;;;;;;;;;5097309;28;20495;-79
2022/04/10 06:58:04;;;;;;;5.90;5.50;;;;;;;;;;5095522;28;20440;-78
2022/04/10 07:00:32;;;;;;;5.77;5.27;;;;;;;;;;5095360;28;21004;-78
2022/04/10 07:03:01;;;;;;;6.50;5.83;;;;;;;;;;5097626;28;20468;-77
2022/04/10 07:05:28;;;;;;;9.13;6.27;;;;;;;;;;5095455;28;20502;-80
2022/04/10 07:07:56;;;;;;;5.30;4.90;;;;;;;;;;5097314;28;20939;-79
2022/04/10 07:10:23;;;;;;;7.00;6.13;;;;;;;;;;5096677;28;20482;-79
2022/04/10 07:12:50;;;;;;;6.67;5.97;;;;;;;;;;5095496;28;20451;-79
2022/04/10 07:15:19;;;;;;;6.53;6.00;;;;;;;;;;5096359;28;20468;-78
2022/04/10 07:17:46;;;;;;;6.50;6.00;;;;;;;;;;5096658;28;20447;-80
2022/04/10 07:20:13;;;;;;;5.90;5.47;;;;;;;;;;5099001;28;20455;-79
2022/04/10 07:25:23;;;;;;;6.87;6.13;;;;;;;;;;5063764;28;20502;-79
2022/04/10 07:27:50;;;;;;;6.20;5.70;;;;;;;;;;5096290;28;20431;-78
2022/04/10 07:30:17;;;;;;;7.13;6.63;;;;;;;;;;5097918;28;20506;-79
2022/04/10 07:32:44;;;;;;;6.73;6.13;;;;;;;;;;5095434;28;20952;-80
2022/04/10 07:35:11;;;;;;;6.43;5.83;;;;;;;;;;5096498;28;20459;-79
2022/04/10 07:37:38;;;;;;;7.10;6.50;;;;;;;;;;5096412;28;20447;-78
2022/04/10 07:40:06;;;;;;;6.60;6.10;;;;;;;;;;5097958;28;20846;-78
2022/04/10 07:42:39;;;;;;;6.37;5.90;;;;;;;;;;5098792;28;20442;-78
2022/04/10 07:45:09;;;;;;;6.40;6.00;;;;;;;;;;5098598;28;20542;-81
2022/04/10 07:47:35;;;;;;;7.10;6.50;;;;;;;;;;5094398;28;20451;-79
2022/04/10 07:50:02;;;;;;;6.87;5.73;;;;;;;;;;5092982;28;20482;-80
2022/04/10 07:52:29;;;;;;;6.00;5.50;;;;;;;;;;5093464;28;20471;-79
2022/04/10 07:54:56;;;;;;;6.77;6.17;;;;;;;;;;5096166;28;20874;-80
2022/04/10 07:57:23;;;;;;;6.70;6.10;;;;;;;;;;5095424;28;20456;-80
2022/04/10 07:59:51;;;;;;;7.33;6.57;;;;;;;;;;5098562;28;20428;-78
2022/04/10 08:02:18;;;;;;;7.27;6.60;;;;;;;;;;5099275;28;20452;-79
2022/04/10 08:04:45;;;;;;;6.70;6.07;;;;;;;;;;5100237;28;20463;-80
2022/04/10 08:07:12;;;;;;;7.10;6.40;;;;;;;;;;5102024;28;20490;-80
2022/04/10 08:09:39;;;;;;;7.00;6.30;;;;;;;;;;5101468;28;21075;-80
2022/04/10 08:12:07;;;;;;;7.27;6.43;;;;;;;;;;5101375;28;21003;-79
2022/04/10 08:14:34;;;;;;;6.70;6.10;;;;;;;;;;5099846;28;20475;-79
2022/04/10 08:17:02;;;;;;;6.47;5.87;;;;;;;;;;5100218;28;20448;-80
2022/04/10 08:19:29;;;;;;;7.20;6.57;;;;;;;;;;5102034;28;20509;-78
2022/04/10 08:21:56;;;;;;;7.00;6.37;;;;;;;;;;5100631;28;20474;-78
2022/04/10 08:24:23;;;;;;;7.20;6.60;;;;;;;;;;5101008;28;20444;-79
2022/04/10 08:26:50;;;;;;;6.87;6.17;;;;;;;;;;5098995;28;20568;-79
2022/04/10 08:29:17;;;;;;;6.87;6.17;;;;;;;;;;5100313;28;20436;-79
2022/04/10 08:31:44;;;;;;;7.20;6.60;;;;;;;;;;5098845;28;20441;-79
2022/04/10 08:34:13;;;;;;;7.27;5.70;;;;;;;;;;5098703;28;20458;-80
2022/04/10 08:36:40;;;;;;;7.13;6.50;;;;;;;;;;5101359;28;20966;-79
2022/04/10 08:39:07;;;;;;;6.80;6.20;;;;;;;;;;5101095;28;20954;-78
2022/04/10 08:41:35;;;;;;;5.93;5.53;;;;;;;;;;5092040;28;20491;-78
2022/04/10 08:44:03;;;;;;;6.13;5.73;;;;;;;;;;5096785;28;20758;-79
2022/04/10 08:46:30;;;;;;;6.33;5.73;;;;;;;;;;5080227;28;21001;-78
2022/04/10 08:48:57;;;;;;;6.40;5.90;;;;;;;;;;5080479;28;20550;-80
2022/04/10 08:51:26;;;;;;;7.10;6.40;;;;;;;;;;5081076;28;20479;-78
2022/04/10 08:53:54;;;;;;;7.30;5.77;;;;;;;;;;5080070;28;20448;-80
2022/04/10 08:56:22;;;;;;;6.50;5.93;;;;;;;;;;5081113;28;20475;-79
2022/04/10 08:58:49;;;;;;;6.60;5.93;;;;;;;;;;5081415;28;20908;-80
2022/04/10 09:01:18;;;;;;;6.80;6.20;;;;;;;;;;5081150;28;20498;-79
2022/04/10 09:03:46;;;;;;;6.00;5.40;;;;;;;;;;5099071;28;20945;-80
2022/04/10 09:06:13;;;;;;;5.90;5.50;;;;;;;;;;5100148;28;20534;-78
2022/04/10 09:08:43;;;;;;;6.53;6.03;;;;;;;;;;5098529;28;20436;-80
2022/04/10 09:11:11;;;;;;;6.50;5.90;;;;;;;;;;5099694;28;20503;-79
2022/04/10 09:13:38;;;;;;;5.83;5.33;;;;;;;;;;5098089;28;20946;-80
2022/04/10 09:16:09;;;;;;;6.80;6.20;;;;;;;;;;5097728;28;20466;-80
2022/04/10 09:18:47;;;;;;;5.60;5.10;;;;;;;;;;5098318;28;20802;-79
2022/04/10 09:21:14;;;;;;;6.60;5.97;;;;;;;;;;5101232;28;20453;-80
2022/04/10 09:23:45;;;;;;;4.90;4.43;;;;;;;;;;5100983;28;20849;-80
2022/04/10 09:26:13;;;;;;;5.47;5.00;;;;;;;;;;5101028;28;20444;-81
2022/04/10 09:28:42;;;;;;;5.40;5.00;;;;;;;;;;5100451;28;20442;-79
2022/04/10 09:31:26;;;;;;;5.37;4.97;;;;;;;;;;5100271;28;21008;-79
2022/04/10 09:33:54;;;;;;;5.63;5.17;;;;;;;;;;5101863;28;20481;-78
2022/04/10 09:36:31;;;;;;;8.20;5.90;;;;;;;;;;5101547;28;20456;-80
2022/04/10 09:38:59;;;;;;;6.23;5.73;;;;;;;;;;5100782;28;20462;-80
2022/04/10 09:41:26;;;;;;;6.83;6.30;;;;;;;;;;5102312;28;20605;-79
2022/04/10 09:43:53;;;;;;;6.37;5.87;;;;;;;;;;5101246;28;20474;-81
2022/04/10 09:46:21;;;;;;;5.60;5.13;;;;;;;;;;5101668;28;20938;-81
2022/04/10 09:48:48;;;;;;;4.83;4.47;;;;;;;;;;5104782;28;20455;-80
2022/04/10 09:51:15;;;;;;;5.70;5.17;;;;;;;;;;5100702;28;21001;-80
2022/04/10 09:53:42;;;;;;;5.23;4.77;;;;;;;;;;5103717;28;20443;-80
2022/04/10 09:56:10;;;;;;;5.33;4.83;;;;;;;;;;5107221;28;20463;-80
2022/04/10 09:58:37;;;;;;;4.90;4.40;;;;;;;;;;5105348;28;20440;-80
2022/04/10 10:01:06;;;;;;;4.27;3.87;;;;;;;;;;5103445;28;20508;-80
2022/04/10 10:03:36;;;;;;;4.07;3.77;;;;;;;;;;5101314;28;20454;-79
2022/04/10 10:06:04;;;;;;;4.97;4.07;;;;;;;;;;5091846;28;20633;-81
2022/04/10 10:08:31;;;;;;;4.53;4.10;;;;;;;;;;5081428;28;20436;-79
2022/04/10 10:10:59;;;;;;;4.30;4.00;;;;;;;;;;5081786;28;20487;-81
2022/04/10 10:13:28;;;;;;;4.73;3.60;;;;;;;;;;5081651;28;20478;-80
2022/04/10 10:15:56;;;;;;;6.97;5.07;;;;;;;;;;5080662;28;20482;-78
2022/04/10 10:18:24;;;;;;;4.10;3.67;;;;;;;;;;5087185;28;20519;-81
2022/04/10 10:20:51;;;;;;;4.27;3.87;;;;;;;;;;5094502;28;20930;-80
2022/04/10 10:23:19;;;;;;;4.53;3.70;;;;;;;;;;5100863;28;20440;-79
2022/04/10 10:25:48;;;;;;;6.63;4.90;;;;;;;;;;5101966;28;20463;-81
2022/04/10 10:28:28;;;;;;;4.40;3.93;;;;;;;;;;5101517;28;20469;-81
2022/04/10 10:31:05;;;;;;;6.93;5.83;;;;;;;;;;5095352;28;20524;-81
2022/04/10 10:33:34;;;;;;;6.47;5.73;;;;;;;;;;5096434;28;20443;-81
2022/04/10 10:36:02;;;;;;;8.47;6.00;;;;;;;;;;5087355;28;20579;-79
2022/04/10 10:38:30;;;;;;;6.10;5.50;;;;;;;;;;5092943;28;20448;-79
2022/04/10 10:41:09;;;;;;;6.50;5.77;;;;;;;;;;5101681;28;20450;-79
2022/04/10 10:43:37;;;;;;;6.10;5.70;;;;;;;;;;5098570;28;20943;-81
2022/04/10 10:46:21;;;;;;;7.57;6.10;;;;;;;;;;5099370;28;20857;-82
2022/04/10 10:48:50;;;;;;;5.90;5.50;;;;;;;;;;5095765;28;20451;-80
2022/04/10 10:51:36;;;;;;;6.23;5.63;;;;;;;;;;5101047;28;20477;-80
2022/04/10 10:54:08;;;;;;;6.70;6.30;;;;;;;;;;5096641;28;20449;-81
2022/04/10 10:56:38;;;;;;;7.20;6.60;;;;;;;;;;5080746;28;20784;-80
2022/04/10 10:59:21;;;;;;;7.30;6.60;;;;;;;;;;5079979;28;20431;-80
2022/04/10 11:01:53;;;;;;;7.47;6.77;;;;;;;;;;5079731;28;20431;-81
2022/04/10 11:04:21;;;;;;;7.20;6.57;;;;;;;;;;5079518;28;20464;-80
2022/04/10 11:06:49;;;;;;;6.60;5.90;;;;;;;;;;5095303;28;20840;-81
2022/04/10 11:09:22;;;;;;;5.77;5.20;;;;;;;;;;5090556;28;20443;-81
2022/04/10 11:11:50;;;;;;;4.43;4.13;;;;;;;;;;5081995;28;20476;-80
2022/04/10 11:14:39;;;;;;;4.60;3.90;;;;;;;;;;5080033;28;20479;-82
2022/04/10 11:17:15;;;;;;;4.20;3.70;;;;;;;;;;5076187;28;20458;-80
2022/04/10 11:19:44;;;;;;;4.60;3.87;;;;;;;;;;5080188;28;20475;-82
2022/04/10 11:22:14;;;;;;;4.13;3.73;;;;;;;;;;5078848;28;20429;-80
2022/04/10 11:24:41;;;;;;;4.63;4.33;;;;;;;;;;5078152;28;20526;-79
2022/04/10 11:27:13;;;;;;;5.27;4.43;;;;;;;;;;5078783;28;20445;-80
2022/04/10 11:29:43;;;;;;;5.20;4.80;;;;;;;;;;5078235;28;20440;-80
2022/04/10 11:32:16;;;;;;;5.20;4.80;;;;;;;;;;5079681;28;20523;-79
2022/04/10 11:34:43;;;;;;;5.57;5.07;;;;;;;;;;5083180;28;20490;-79
2022/04/10 11:37:18;;;;;;;4.53;4.17;;;;;;;;;;5100180;28;20447;-79
2022/04/10 11:39:45;;;;;;;7.30;5.87;;;;;;;;;;5093643;28;20454;-80
2022/04/10 11:42:13;;;;;;;5.83;5.33;;;;;;;;;;5082190;28;20439;-81
2022/04/10 11:44:41;;;;;;;8.17;4.90;;;;;;;;;;5082213;28;20451;-79
2022/04/10 11:47:08;;;;;;;6.40;4.70;;;;;;;;;;5082094;28;20444;-79
2022/04/10 11:49:37;;;;;;;5.77;5.17;;;;;;;;;;5080038;28;20464;-80
2022/04/10 11:52:07;;;;;;;5.27;4.73;;;;;;;;;;5082801;28;20476;-77
2022/04/10 11:54:36;;;;;;;5.80;5.30;;;;;;;;;;5087937;28;20471;-79
2022/04/10 11:57:04;;;;;;;7.03;6.33;;;;;;;;;;5100002;28;20865;-79
2022/04/10 11:59:35;;;;;;;8.20;6.40;;;;;;;;;;5102455;28;20444;-79
2022/04/10 12:02:03;;;;;;;7.10;6.50;;;;;;;;;;5101835;28;20875;-80
2022/04/10 12:04:31;;;;;;;6.13;5.53;;;;;;;;;;5099692;28;20460;-80
2022/04/10 12:07:12;;;;;;;7.60;5.80;;;;;;;;;;5101579;28;20879;-79
2022/04/10 12:09:40;;;;;;;6.90;6.40;;;;;;;;;;5102420;28;20486;-79
2022/04/10 12:12:07;;;;;;;6.53;5.63;;;;;;;;;;5102770;28;21035;-81
2022/04/10 12:14:34;;;;;;;6.60;5.90;;;;;;;;;;5102605;28;20520;-79
2022/04/10 12:17:01;;;;;;;6.50;5.83;;;;;;;;;;5102660;28;20483;-79
2022/04/10 12:19:34;;;;;;;6.60;6.00;;;;;;;;;;5101890;28;20444;-79
2022/04/10 12:22:01;;;;;;;8.70;6.07;;;;;;;;;;5106301;28;20440;-80
2022/04/10 12:24:30;;;;;;;7.10;5.30;;;;;;;;;;5106967;28;20479;-78
2022/04/10 12:26:59;;;;;;;5.10;4.70;;;;;;;;;;5106687;28;20868;-79
2022/04/10 12:29:26;;;;;;;5.73;5.23;;;;;;;;;;5106103;28;20443;-79
2022/04/10 12:31:54;;;;;;;4.90;4.40;;;;;;;;;;5101905;28;20484;-80
2022/04/10 12:34:22;;;;;;;5.50;5.00;;;;;;;;;;5103164;28;20474;-80
2022/04/10 12:36:49;;;;;;;6.53;5.80;;;;;;;;;;5101114;28;20452;-79
2022/04/10 12:39:26;;;;;;;5.00;4.60;;;;;;;;;;5103172;28;20440;-80
2022/04/10 12:42:07;;;;;;;6.90;5.27;;;;;;;;;;5099184;28;20435;-79
2022/04/10 12:44:34;;;;;;;5.70;5.20;;;;;;;;;;5101737;28;20463;-79
2022/04/10 12:47:01;;;;;;;7.17;5.40;;;;;;;;;;5114616;28;20424;-78
2022/04/10 12:49:28;;;;;;;5.90;5.40;;;;;;;;;;5114111;28;20470;-77
2022/04/10 12:51:56;;;;;;;5.47;5.07;;;;;;;;;;5110982;28;20495;-78
2022/04/10 12:54:37;;;;;;;5.60;4.90;;;;;;;;;;5103832;28;21008;-78
2022/04/10 12:57:06;;;;;;;4.97;4.47;;;;;;;;;;5103705;28;20448;-79
2022/04/10 12:59:37;;;;;;;5.27;4.87;;;;;;;;;;5104020;28;20459;-78
2022/04/10 13:02:09;;;;;;;5.93;5.43;;;;;;;;;;5102393;28;20468;-80
2022/04/10 13:04:36;;;;;;;5.03;4.53;;;;;;;;;;5101361;28;20491;-79
2022/04/10 13:07:04;;;;;;;4.90;4.50;;;;;;;;;;5101971;28;20447;-79
2022/04/10 13:09:31;;;;;;;4.87;4.47;;;;;;;;;;5102356;28;20450;-79
2022/04/10 13:11:58;;;;;;;4.37;4.07;;;;;;;;;;5096901;28;20512;-78
2022/04/10 13:14:26;;;;;;;6.27;4.50;;;;;;;;;;5096486;28;20639;-79
2022/04/10 13:17:04;;;;;;;5.00;4.60;;;;;;;;;;5099425;28;20914;-79
2022/04/10 13:19:32;;;;;;;4.93;4.23;;;;;;;;;;5101240;28;20493;-78
2022/04/10 13:21:59;;;;;;;6.30;4.63;;;;;;;;;;5101545;28;20440;-79
2022/04/10 13:24:26;;;;;;;5.20;4.70;;;;;;;;;;5099550;28;20974;-78
2022/04/10 13:26:53;;;;;;;4.30;4.10;;;;;;;;;;5100530;28;20620;-79
2022/04/10 13:29:20;;;;;;;5.27;4.87;;;;;;;;;;5101705;28;20448;-79
2022/04/10 13:31:49;;;;;;;5.90;5.33;;;;;;;;;;5103027;28;20545;-79
2022/04/10 13:34:16;;;;;;;5.77;5.20;;;;;;;;;;5102805;28;20468;-79
2022/04/10 13:36:43;;;;;;;5.67;5.17;;;;;;;;;;5098543;28;20501;-79
2022/04/10 13:39:10;;;;;;;4.87;4.47;;;;;;;;;;5097129;28;20954;-78
2022/04/10 13:41:37;;;;;;;7.40;5.80;;;;;;;;;;5097742;28;20440;-79
2022/04/10 13:44:05;;;;;;;4.80;4.40;;;;;;;;;;5098708;28;20863;-78
2022/04/10 13:46:32;;;;;;;4.80;4.40;;;;;;;;;;5096897;28;20436;-78
2022/04/10 13:49:01;;;;;;;4.90;4.50;;;;;;;;;;5101970;28;20444;-78
2022/04/10 13:51:28;;;;;;;4.23;3.93;;;;;;;;;;5097405;28;20472;-79
2022/04/10 13:53:55;;;;;;;4.83;4.47;;;;;;;;;;5094723;28;20439;-77
2022/04/10 13:56:22;;;;;;;5.53;5.13;;;;;;;;;;5095518;28;20451;-78
2022/04/10 13:58:49;;;;;;;4.60;4.27;;;;;;;;;;5103889;28;20459;-79
2022/04/10 14:01:16;;;;;;;5.40;5.10;;;;;;;;;;5103767;28;20435;-79
2022/04/10 14:03:43;;;;;;;4.80;4.43;;;;;;;;;;5095364;28;20589;-78
2022/04/10 14:06:11;;;;;;;5.00;4.40;;;;;;;;;;5092880;28;20479;-79
2022/04/10 14:08:50;;;;;;;4.80;4.10;;;;;;;;;;5078894;28;20841;-79
2022/04/10 14:11:24;;;;;;;5.17;4.77;;;;;;;;;;5079297;28;20468;-78
2022/04/10 14:13:54;;;;;;;5.20;4.70;;;;;;;;;;5080264;28;20879;-80
2022/04/10 14:16:21;;;;;;;5.03;4.73;;;;;;;;;;5072426;28;20444;-78
2022/04/10 14:18:48;;;;;;;5.00;4.60;;;;;;;;;;5075376;28;20947;-80
2022/04/10 14:21:22;;;;;;;5.40;5.00;;;;;;;;;;5076039;28;20864;-80
2022/04/10 14:23:49;;;;;;;6.20;5.17;;;;;;;;;;5073598;28;20441;-79
2022/04/10 14:26:16;;;;;;;4.93;4.53;;;;;;;;;;5073694;28;20441;-80
2022/04/10 14:28:43;;;;;;;5.80;4.90;;;;;;;;;;5075274;28;20467;-78
2022/04/10 14:31:10;;;;;;;4.80;3.80;;;;;;;;;;5074963;28;20452;-79
2022/04/10 14:33:37;;;;;;;5.77;4.47;;;;;;;;;;5074531;28;20502;-79
2022/04/10 14:36:04;;;;;;;6.03;4.80;;;;;;;;;;5076472;28;20457;-78
2022/04/10 14:38:33;;;;;;;5.90;4.27;;;;;;;;;;5079291;28;20445;-79
2022/04/10 14:41:02;;;;;;;4.57;4.27;;;;;;;;;;5078166;28;20525;-80
2022/04/10 14:43:29;;;;;;;4.70;4.40;;;;;;;;;;5077804;28;21045;-80
2022/04/10 14:45:56;;;;;;;5.03;4.50;;;;;;;;;;5079465;28;20522;-78
2022/04/10 14:48:23;;;;;;;4.03;3.70;;;;;;;;;;5078541;28;20445;-79
2022/04/10 14:50:51;;;;;;;4.43;4.03;;;;;;;;;;5077985;28;20451;-79
2022/04/10 14:53:18;;;;;;;4.07;3.77;;;;;;;;;;5079830;28;20469;-78
2022/04/10 14:55:46;;;;;;;4.40;4.00;;;;;;;;;;5076516;28;20495;-80